createdAt,value
2023-05-12T00:01:34.286Z,9.34
2023-05-12T00:04:02.429Z,9.37
2023-05-12T00:06:29.619Z,9.39
2023-05-12T00:08:56.698Z,9.40
2023-05-12T00:11:24.275Z,9.41
2023-05-12T00:13:51.590Z,9.38
2023-05-12T00:16:18.913Z,9.43
2023-05-12T00:18:46.454Z,9.43
2023-05-12T00:21:13.589Z,9.40
2023-05-12T00:23:40.799Z,9.40
2023-05-12T00:26:08.157Z,9.41
2023-05-12T00:28:35.922Z,9.39
2023-05-12T00:31:03.946Z,9.46
2023-05-12T00:33:32.676Z,9.42
2023-05-12T00:36:04.099Z,9.43
2023-05-12T00:38:31.448Z,9.33
2023-05-12T00:40:58.419Z,9.33
2023-05-12T00:43:25.482Z,9.32
2023-05-12T00:45:56.732Z,9.31
2023-05-12T00:48:24.143Z,9.34
2023-05-12T00:50:51.407Z,9.38
2023-05-12T00:53:18.760Z,9.41
2023-05-12T00:55:46.048Z,9.29
2023-05-12T00:58:13.619Z,9.26
2023-05-12T01:00:40.917Z,9.33
2023-05-12T01:03:08.205Z,9.37
2023-05-12T01:05:59.498Z,9.32
2023-05-12T01:08:27.056Z,9.38
2023-05-12T01:10:54.192Z,9.37
2023-05-12T01:13:21.386Z,9.38
2023-05-12T01:15:50.422Z,9.37
2023-05-12T01:18:19.751Z,9.49
2023-05-12T01:20:47.676Z,9.44
2023-05-12T01:23:18.703Z,9.41
2023-05-12T01:25:46.839Z,9.43
2023-05-12T01:28:13.864Z,9.39
2023-05-12T01:30:42.462Z,9.47
2023-05-12T01:33:10.756Z,9.49
2023-05-12T01:35:38.219Z,9.46
2023-05-12T01:38:05.567Z,9.47
2023-05-12T01:40:33.111Z,9.47
2023-05-12T01:43:00.350Z,9.50
2023-05-12T01:45:28.165Z,9.44
2023-05-12T01:47:56.179Z,9.36
2023-05-12T01:50:23.257Z,9.40
2023-05-12T01:52:50.945Z,9.39
2023-05-12T01:55:18.465Z,9.42
2023-05-12T01:57:45.908Z,9.44
2023-05-12T02:00:13.622Z,9.55
2023-05-12T02:02:42.925Z,9.48
2023-05-12T02:05:11.707Z,9.43
2023-05-12T02:07:39.608Z,9.47
2023-05-12T02:10:07.794Z,9.41
2023-05-12T02:12:35.306Z,9.40
2023-05-12T02:15:02.619Z,9.40
2023-05-12T02:17:30.077Z,9.42
2023-05-12T02:19:57.770Z,9.41
2023-05-12T02:22:24.942Z,9.38
2023-05-12T02:24:52.001Z,9.37
2023-05-12T02:27:19.451Z,9.40
2023-05-12T02:29:46.812Z,9.38
2023-05-12T02:32:14.889Z,9.35
2023-05-12T02:34:43.929Z,9.32
2023-05-12T02:37:11.066Z,9.34
2023-05-12T02:39:38.131Z,9.38
2023-05-12T02:42:06.461Z,9.38
2023-05-12T02:44:33.761Z,9.32
2023-05-12T02:47:01.176Z,9.27
2023-05-12T02:49:29.297Z,9.25
2023-05-12T02:51:56.862Z,9.31
2023-05-12T02:54:24.150Z,9.30
2023-05-12T02:56:51.425Z,9.35
2023-05-12T02:59:18.503Z,9.34
2023-05-12T03:01:46.589Z,9.34
2023-05-12T03:04:14.440Z,9.34
2023-05-12T03:06:41.508Z,9.30
2023-05-12T03:09:08.524Z,9.31
2023-05-12T03:11:35.944Z,9.31
2023-05-12T03:14:03.369Z,9.31
2023-05-12T03:16:30.654Z,9.30
2023-05-12T03:19:00.265Z,9.34
2023-05-12T03:21:28.550Z,9.25
2023-05-12T03:23:55.555Z,9.27
2023-05-12T03:26:23.180Z,9.27
2023-05-12T03:28:50.221Z,9.25
2023-05-12T03:31:17.904Z,9.18
2023-05-12T03:33:45.781Z,9.22
2023-05-12T03:36:12.756Z,9.22
2023-05-12T03:38:42.014Z,9.29
2023-05-12T03:41:09.339Z,9.27
2023-05-12T03:43:36.673Z,9.27
2023-05-12T03:46:04.314Z,9.26
2023-05-12T03:48:31.799Z,9.27
2023-05-12T03:50:59.042Z,9.31
2023-05-12T03:53:26.143Z,9.38
2023-05-12T03:55:53.477Z,9.31
2023-05-12T03:58:23.127Z,9.36
2023-05-12T04:00:50.871Z,9.42
2023-05-12T04:03:18.618Z,9.46
2023-05-12T04:05:45.677Z,9.41
2023-05-12T04:08:12.671Z,9.41
2023-05-12T04:10:40.835Z,9.39
2023-05-12T04:13:08.830Z,9.40
2023-05-12T04:15:35.873Z,9.48
2023-05-12T04:18:04.156Z,9.50
2023-05-12T04:20:31.280Z,9.57
2023-05-12T04:22:58.461Z,9.56
2023-05-12T04:25:26.524Z,9.56
2023-05-12T04:27:53.866Z,9.59
2023-05-12T04:30:22.445Z,9.55
2023-05-12T04:32:50.011Z,9.57
2023-05-12T04:35:17.152Z,9.54
2023-05-12T04:37:44.301Z,9.59
2023-05-12T04:40:11.938Z,9.60
2023-05-12T04:42:39.062Z,9.58
2023-05-12T04:45:07.526Z,9.58
2023-05-12T04:47:35.857Z,9.57
2023-05-12T04:50:04.397Z,9.60
2023-05-12T04:52:32.148Z,9.62
2023-05-12T04:54:59.808Z,9.59
2023-05-12T04:57:27.222Z,9.64
2023-05-12T04:59:55.601Z,9.66
2023-05-12T05:02:23.101Z,9.52
2023-05-12T05:04:50.730Z,9.61
2023-05-12T05:07:17.794Z,9.64
2023-05-12T05:09:45.242Z,9.66
2023-05-12T05:12:13.375Z,9.74
2023-05-12T05:14:40.477Z,9.74
2023-05-12T05:17:08.133Z,9.66
2023-05-12T05:19:50.984Z,9.69
2023-05-12T05:22:23.005Z,9.73
2023-05-12T05:24:50.647Z,9.74
2023-05-12T05:27:17.761Z,9.78
2023-05-12T05:29:45.460Z,9.85
2023-05-12T05:32:13.705Z,9.87
2023-05-12T05:34:40.764Z,9.88
2023-05-12T05:37:08.373Z,9.94
2023-05-12T05:39:38.087Z,9.97
2023-05-12T05:42:05.314Z,9.96
2023-05-12T05:44:32.655Z,10.01
2023-05-12T05:47:00.395Z,9.98
2023-05-12T05:49:27.593Z,10.04
2023-05-12T05:51:59.045Z,10.04
2023-05-12T05:54:26.424Z,10.00
2023-05-12T05:56:53.464Z,10.07
2023-05-12T05:59:20.830Z,10.11
2023-05-12T06:01:48.200Z,10.05
2023-05-12T06:04:15.967Z,10.12
2023-05-12T06:06:43.356Z,10.11
2023-05-12T06:09:12.356Z,10.13
2023-05-12T06:11:39.708Z,10.19
2023-05-12T06:14:06.890Z,10.25
2023-05-12T06:16:33.979Z,10.16
2023-05-12T06:19:01.578Z,10.31
2023-05-12T06:21:28.987Z,10.22
2023-05-12T06:23:57.000Z,10.27
2023-05-12T06:26:24.354Z,10.34
2023-05-12T06:28:51.448Z,10.33
2023-05-12T06:31:18.577Z,10.45
2023-05-12T06:33:47.402Z,10.56
2023-05-12T06:36:14.627Z,10.50
2023-05-12T06:38:41.780Z,10.54
2023-05-12T06:41:09.122Z,10.57
2023-05-12T06:43:36.614Z,10.60
2023-05-12T06:46:03.771Z,10.54
2023-05-12T06:48:31.149Z,10.63
2023-05-12T06:50:58.221Z,10.62
2023-05-12T06:53:33.831Z,10.75
2023-05-12T06:56:01.428Z,10.83
2023-05-12T06:58:28.514Z,10.79
2023-05-12T07:00:55.767Z,10.93
2023-05-12T07:03:23.414Z,11.12
2023-05-12T07:05:50.447Z,11.10
2023-05-12T07:08:17.598Z,10.95
2023-05-12T07:10:44.863Z,10.91
2023-05-12T07:13:11.863Z,10.86
2023-05-12T07:15:39.183Z,10.92
2023-05-12T07:18:07.502Z,10.97
2023-05-12T07:20:34.572Z,11.01
2023-05-12T07:23:01.670Z,10.98
2023-05-12T07:25:29.134Z,11.03
2023-05-12T07:27:56.575Z,11.08
2023-05-12T07:30:23.549Z,11.05
2023-05-12T07:32:51.269Z,11.06
2023-05-12T07:35:18.685Z,10.95
2023-05-12T07:37:46.832Z,11.04
2023-05-12T07:40:14.171Z,11.20
2023-05-12T07:42:41.177Z,11.11
2023-05-12T07:45:08.506Z,11.16
2023-05-12T07:47:35.919Z,11.25
2023-05-12T07:50:03.409Z,11.16
2023-05-12T07:52:30.651Z,11.36
2023-05-12T07:54:57.941Z,11.52
2023-05-12T07:57:25.152Z,11.74
2023-05-12T07:59:52.200Z,11.65
2023-05-12T08:02:20.703Z,11.80
2023-05-12T08:04:48.282Z,11.90
2023-05-12T08:07:15.815Z,11.82
2023-05-12T08:09:42.880Z,11.77
2023-05-12T08:12:10.210Z,11.73
2023-05-12T08:14:37.463Z,11.60
2023-05-12T08:17:05.121Z,11.64
2023-05-12T08:19:32.557Z,11.56
2023-05-12T08:22:00.440Z,11.66
2023-05-12T08:24:27.465Z,11.68
2023-05-12T08:26:54.770Z,11.87
2023-05-12T08:29:22.035Z,11.85
2023-05-12T08:31:49.077Z,11.92
2023-05-12T08:34:16.748Z,11.95
2023-05-12T08:36:44.002Z,11.85
2023-05-12T08:39:11.642Z,11.87
2023-05-12T08:42:04.860Z,11.95
2023-05-12T08:44:32.840Z,11.90
2023-05-12T08:47:00.985Z,11.68
2023-05-12T08:49:29.676Z,11.56
2023-05-12T08:51:58.309Z,11.72
2023-05-12T08:54:27.993Z,11.71
2023-05-12T08:59:26.297Z,11.59
2023-05-12T09:01:55.475Z,11.46
2023-05-12T09:04:22.850Z,11.52
2023-05-12T09:06:50.754Z,11.50
2023-05-12T09:09:18.809Z,11.54
2023-05-12T09:11:49.602Z,11.53
2023-05-12T09:14:19.234Z,11.44
2023-05-12T09:16:49.118Z,11.59
2023-05-12T09:19:21.091Z,11.84
2023-05-12T09:21:48.906Z,11.78
2023-05-12T09:24:17.212Z,11.90
2023-05-12T09:26:53.872Z,11.52
2023-05-12T09:29:31.354Z,11.45
2023-05-12T09:32:01.968Z,11.54
2023-05-12T09:34:34.029Z,11.49
2023-05-12T09:37:06.642Z,11.35
2023-05-12T09:39:34.269Z,11.23
2023-05-12T09:42:01.430Z,11.06
2023-05-12T09:44:31.333Z,10.85
2023-05-12T09:47:08.225Z,10.77
2023-05-12T09:49:35.761Z,10.75
2023-05-12T09:52:04.979Z,10.89
2023-05-12T09:54:33.624Z,11.10
2023-05-12T09:57:04.946Z,11.13
2023-05-12T09:59:38.420Z,11.23
2023-05-12T10:02:07.002Z,11.42
2023-05-12T10:04:46.492Z,11.61
2023-05-12T10:07:14.592Z,11.61
2023-05-12T10:09:42.870Z,11.40
2023-05-12T10:12:10.636Z,11.14
2023-05-12T10:14:38.308Z,11.06
2023-05-12T10:17:07.039Z,10.96
2023-05-12T10:19:35.631Z,10.87
2023-05-12T10:22:03.058Z,10.96
2023-05-12T10:24:30.646Z,10.75
2023-05-12T10:26:59.583Z,10.72
2023-05-12T10:29:31.134Z,10.79
2023-05-12T10:32:01.111Z,10.62
2023-05-12T10:34:37.177Z,10.59
2023-05-12T10:37:09.118Z,10.79
2023-05-12T10:39:37.355Z,10.95
2023-05-12T10:42:08.833Z,10.64
2023-05-12T10:44:36.659Z,10.62
2023-05-12T10:47:13.925Z,10.61
2023-05-12T10:49:42.219Z,10.46
2023-05-12T10:52:12.856Z,10.46
2023-05-12T10:54:44.710Z,10.37
2023-05-12T10:57:17.974Z,10.34
2023-05-12T11:00:05.102Z,10.42
2023-05-12T11:02:36.798Z,10.55
2023-05-12T11:05:12.920Z,10.57
2023-05-12T11:07:47.864Z,10.64
2023-05-12T11:10:17.966Z,10.73
2023-05-12T11:12:45.678Z,10.93
2023-05-12T11:15:13.247Z,11.04
2023-05-12T11:17:40.917Z,10.92
2023-05-12T11:20:10.020Z,10.92
2023-05-12T11:22:37.482Z,11.03
2023-05-12T11:25:11.767Z,11.09
2023-05-12T11:27:42.486Z,11.13
2023-05-12T11:30:11.485Z,11.00
2023-05-12T11:32:39.092Z,10.92
2023-05-12T11:35:12.861Z,10.83
2023-05-12T11:37:41.084Z,10.64
2023-05-12T11:40:18.133Z,10.52
2023-05-12T11:42:48.584Z,10.50
2023-05-12T11:45:23.905Z,10.39
2023-05-12T11:47:52.041Z,10.53
2023-05-12T11:50:23.793Z,10.62
2023-05-12T11:52:51.669Z,10.74
2023-05-12T11:55:24.118Z,10.83
2023-05-12T11:58:02.687Z,10.76
2023-05-12T12:00:35.182Z,10.65
2023-05-12T12:03:13.823Z,10.56
2023-05-12T12:05:42.821Z,10.73
2023-05-12T12:08:13.339Z,10.70
2023-05-12T12:10:45.926Z,10.70
2023-05-12T12:13:19.396Z,10.54
2023-05-12T12:15:46.682Z,10.43
2023-05-12T12:18:15.194Z,10.43
2023-05-12T12:20:43.353Z,10.59
2023-05-12T12:23:10.777Z,10.63
2023-05-12T12:25:40.484Z,10.62
2023-05-12T12:28:08.253Z,10.55
2023-05-12T12:30:35.303Z,10.44
2023-05-12T12:33:02.715Z,10.51
2023-05-12T12:35:30.573Z,10.37
2023-05-12T12:37:58.675Z,10.38
2023-05-12T12:40:26.003Z,10.42
2023-05-12T12:42:53.438Z,10.40
2023-05-12T12:45:21.112Z,10.46
2023-05-12T12:47:48.531Z,10.38
2023-05-12T12:50:15.613Z,10.30
2023-05-12T12:52:43.113Z,10.34
2023-05-12T12:55:10.621Z,10.33
2023-05-12T12:57:37.704Z,10.30
2023-05-12T13:00:05.746Z,10.29
2023-05-12T13:02:33.639Z,10.21
2023-05-12T13:05:06.007Z,10.26
2023-05-12T13:07:33.773Z,10.27
2023-05-12T13:10:02.341Z,10.29
2023-05-12T13:12:30.586Z,10.25
2023-05-12T13:15:00.211Z,10.28
2023-05-12T13:17:27.400Z,10.25
2023-05-12T13:19:54.751Z,10.27
2023-05-12T13:22:22.706Z,10.29
2023-05-12T13:24:49.712Z,10.22
2023-05-12T13:27:16.679Z,10.23
2023-05-12T13:29:47.216Z,10.29
2023-05-12T13:32:17.509Z,10.34
2023-05-12T13:34:44.982Z,10.39
2023-05-12T13:37:11.981Z,10.37
2023-05-12T13:39:38.997Z,10.32
2023-05-12T13:42:06.513Z,10.27
2023-05-12T13:44:33.631Z,10.37
2023-05-12T13:47:00.826Z,10.47
2023-05-12T13:49:28.165Z,10.50
2023-05-12T13:51:55.281Z,10.52
2023-05-12T13:54:22.516Z,10.57
2023-05-12T13:56:49.948Z,10.53
2023-05-12T13:59:17.070Z,10.44
2023-05-12T14:01:46.889Z,10.47
2023-05-12T14:04:14.383Z,10.38
2023-05-12T14:06:41.384Z,10.37
2023-05-12T14:09:08.681Z,10.22
2023-05-12T14:11:36.092Z,10.23
2023-05-12T14:14:06.899Z,10.13
2023-05-12T14:16:34.285Z,10.07
2023-05-12T14:19:01.607Z,10.04
2023-05-12T14:21:28.693Z,9.98
2023-05-12T14:23:55.688Z,10.07
2023-05-12T14:26:25.481Z,10.03
2023-05-12T14:28:52.784Z,10.24
2023-05-12T14:31:20.421Z,10.24
2023-05-12T14:33:47.882Z,10.40
2023-05-12T14:36:14.853Z,10.36
2023-05-12T14:38:41.859Z,10.36
2023-05-12T14:41:10.678Z,10.38
2023-05-12T14:43:38.340Z,10.20
2023-05-12T14:46:06.254Z,10.24
2023-05-12T14:48:33.641Z,10.22
2023-05-12T14:51:02.343Z,10.23
2023-05-12T14:53:29.580Z,10.27
2023-05-12T14:55:57.030Z,10.20
2023-05-12T14:58:24.421Z,10.12
2023-05-12T15:00:52.101Z,10.09
2023-05-12T15:03:21.169Z,10.15
2023-05-12T15:08:21.797Z,10.19
2023-05-12T15:10:49.849Z,10.12
2023-05-12T15:13:20.129Z,9.97
2023-05-12T15:15:47.749Z,9.98
2023-05-12T15:18:15.037Z,10.08
2023-05-12T15:20:42.135Z,9.97
2023-05-12T15:23:09.825Z,10.06
2023-05-12T15:25:40.691Z,10.04
2023-05-12T15:28:07.977Z,9.94
2023-05-12T15:30:36.098Z,10.01
2023-05-12T15:33:06.511Z,9.99
2023-05-12T15:35:34.035Z,9.97
2023-05-12T15:38:01.542Z,9.99
2023-05-12T15:40:31.043Z,9.97
2023-05-12T15:42:58.725Z,10.04
2023-05-12T15:45:26.286Z,10.07
2023-05-12T15:47:53.376Z,10.15
2023-05-12T15:50:22.943Z,10.08
2023-05-12T15:52:50.866Z,10.09
2023-05-12T15:55:18.834Z,10.10
2023-05-12T15:57:46.554Z,9.96
2023-05-12T16:00:14.670Z,9.94
2023-05-12T16:02:41.700Z,9.94
2023-05-12T16:05:09.723Z,9.98
2023-05-12T16:07:36.825Z,9.94
2023-05-12T16:10:04.425Z,9.90
2023-05-12T16:12:32.527Z,9.94
2023-05-12T16:14:59.524Z,9.91
2023-05-12T16:17:27.773Z,9.88
2023-05-12T16:19:56.999Z,9.94
2023-05-12T16:22:25.177Z,9.88
2023-05-12T16:24:53.758Z,9.90
2023-05-12T16:27:21.034Z,9.77
2023-05-12T16:29:49.590Z,9.74
2023-05-12T16:32:17.530Z,9.85
2023-05-12T16:34:45.050Z,9.76
2023-05-12T16:37:12.086Z,9.84
2023-05-12T16:39:39.555Z,9.85
2023-05-12T16:42:07.270Z,9.84
2023-05-12T16:44:34.338Z,9.76
2023-05-12T16:47:01.377Z,9.66
2023-05-12T16:49:28.651Z,9.75
2023-05-12T16:51:55.953Z,9.75
2023-05-12T16:54:22.988Z,9.76
2023-05-12T16:56:50.255Z,9.60
2023-05-12T16:59:17.249Z,9.71
2023-05-12T17:01:44.352Z,9.69
2023-05-12T17:04:12.448Z,9.67
2023-05-12T17:06:39.568Z,9.68
2023-05-12T17:09:06.888Z,9.63
2023-05-12T17:11:34.267Z,9.62
2023-05-12T17:14:01.307Z,9.59
2023-05-12T17:16:28.781Z,9.58
2023-05-12T17:21:26.653Z,9.38
2023-05-12T17:23:54.251Z,9.48
2023-05-12T17:26:21.616Z,9.54
2023-05-12T17:28:50.923Z,9.49
2023-05-12T17:31:17.887Z,9.42
2023-05-12T17:33:45.436Z,9.46
2023-05-12T17:36:13.415Z,9.47
2023-05-12T17:38:41.315Z,9.46
2023-05-12T17:41:08.655Z,9.47
2023-05-12T17:43:36.115Z,9.52
2023-05-12T17:46:04.675Z,9.54
2023-05-12T17:48:33.354Z,9.48
2023-05-12T17:51:03.115Z,9.46
2023-05-12T17:53:31.213Z,9.43
2023-05-12T17:55:59.070Z,9.49
2023-05-12T17:58:26.439Z,9.43
2023-05-12T18:00:53.876Z,9.38
2023-05-12T18:03:24.167Z,9.32
2023-05-12T18:05:53.203Z,9.38
2023-05-12T18:08:20.374Z,9.40
2023-05-12T18:10:47.989Z,9.38
2023-05-12T18:13:15.589Z,9.34
2023-05-12T18:15:42.782Z,9.30
2023-05-12T18:18:10.906Z,9.30
2023-05-12T18:20:38.250Z,9.28
2023-05-12T18:23:06.194Z,9.20
2023-05-12T18:25:33.505Z,9.26
2023-05-12T18:28:00.561Z,9.18
2023-05-12T18:30:27.629Z,9.23
2023-05-12T18:32:55.220Z,9.26
2023-05-12T18:35:23.552Z,9.24
2023-05-12T18:37:50.738Z,9.23
2023-05-12T18:40:18.117Z,9.22
2023-05-12T18:42:47.255Z,9.22
2023-05-12T18:45:15.691Z,9.19
2023-05-12T18:47:46.592Z,9.16
2023-05-12T18:50:13.659Z,9.18
2023-05-12T18:52:40.813Z,9.11
2023-05-12T18:55:08.399Z,9.11
2023-05-12T18:57:35.460Z,9.14
2023-05-12T19:00:02.558Z,9.06
2023-05-12T19:02:29.955Z,9.08
2023-05-12T19:04:57.822Z,9.05
2023-05-12T19:07:24.869Z,9.06
2023-05-12T19:09:52.431Z,9.03
2023-05-12T19:12:20.448Z,9.05
2023-05-12T19:14:47.444Z,9.00
2023-05-12T19:17:14.755Z,9.03
2023-05-12T19:19:41.933Z,9.06
2023-05-12T19:22:09.878Z,9.08
2023-05-12T19:24:37.961Z,9.05
2023-05-12T19:27:05.214Z,9.11
2023-05-12T19:29:32.920Z,9.05
2023-05-12T19:32:00.377Z,9.07
2023-05-12T19:34:29.515Z,9.00
2023-05-12T19:37:00.742Z,9.00
2023-05-12T19:39:28.363Z,8.98
2023-05-12T19:41:55.413Z,8.95
2023-05-12T19:44:22.405Z,8.99
2023-05-12T19:46:50.872Z,8.98
2023-05-12T19:49:18.086Z,8.96
2023-05-12T19:51:45.799Z,9.00
2023-05-12T19:54:14.162Z,9.00
2023-05-12T19:56:41.310Z,9.02
2023-05-12T19:59:10.583Z,8.96
2023-05-12T20:01:37.905Z,8.95
2023-05-12T20:04:05.324Z,8.98
2023-05-12T20:06:32.599Z,9.03
2023-05-12T20:08:59.597Z,9.06
2023-05-12T20:11:27.333Z,9.02
2023-05-12T20:13:54.342Z,9.03
2023-05-12T20:16:21.331Z,9.03
2023-05-12T20:18:48.784Z,9.04
2023-05-12T20:21:15.771Z,9.09
2023-05-12T20:23:43.239Z,9.08
2023-05-12T20:26:12.894Z,9.06
2023-05-12T20:28:40.043Z,9.03
2023-05-12T20:31:07.394Z,9.09
2023-05-12T20:33:34.803Z,9.05
2023-05-12T20:36:01.801Z,9.05
2023-05-12T20:38:29.432Z,9.06
2023-05-12T20:40:56.730Z,9.01
2023-05-12T20:43:23.718Z,9.02
2023-05-12T20:45:50.709Z,8.98
2023-05-12T20:48:18.080Z,9.00
2023-05-12T20:50:45.771Z,9.05
2023-05-12T20:53:12.792Z,9.03
2023-05-12T20:55:42.990Z,8.99
2023-05-12T20:58:10.123Z,8.96
2023-05-12T21:00:37.274Z,9.06
2023-05-12T21:03:06.011Z,9.06
2023-05-12T21:05:33.208Z,9.12
2023-05-12T21:08:00.419Z,9.09
2023-05-12T21:10:27.680Z,9.04
2023-05-12T21:12:54.703Z,9.08
2023-05-12T21:15:21.679Z,9.08
2023-05-12T21:17:49.380Z,9.02
2023-05-12T21:20:16.955Z,8.99
2023-05-12T21:22:43.937Z,8.98
2023-05-12T21:25:11.388Z,8.94
2023-05-12T21:27:41.499Z,9.01
2023-05-12T21:30:10.502Z,9.06
2023-05-12T21:32:37.918Z,9.00
2023-05-12T21:35:06.194Z,9.13
2023-05-12T21:37:34.287Z,9.14
2023-05-12T21:40:01.681Z,9.16
2023-05-12T21:42:28.701Z,9.18
2023-05-12T21:44:56.020Z,9.14
2023-05-12T21:47:23.410Z,9.12
2023-05-12T21:49:56.807Z,9.14
2023-05-12T21:52:24.186Z,9.21
2023-05-12T21:54:51.190Z,9.15
2023-05-12T21:57:18.234Z,9.24
2023-05-12T21:59:45.594Z,9.23
2023-05-12T22:02:13.360Z,9.27
2023-05-12T22:04:40.641Z,9.22
2023-05-12T22:07:08.309Z,9.17
2023-05-12T22:09:35.375Z,9.25
2023-05-12T22:12:02.649Z,9.22
2023-05-12T22:14:29.636Z,9.23
2023-05-12T22:16:56.791Z,9.26
2023-05-12T22:19:24.073Z,9.28
2023-05-12T22:21:51.580Z,9.23
2023-05-12T22:24:18.583Z,9.22
2023-05-12T22:26:45.971Z,9.21
2023-05-12T22:29:12.977Z,9.27
2023-05-12T22:31:40.190Z,9.23
2023-05-12T22:34:07.970Z,9.29
2023-05-12T22:36:35.026Z,9.27
2023-05-12T22:39:02.031Z,9.31
2023-05-12T22:41:29.740Z,9.34
2023-05-12T22:43:57.482Z,9.28
2023-05-12T22:46:24.900Z,9.22
2023-05-12T22:48:52.694Z,9.28
2023-05-12T22:51:19.673Z,9.30
2023-05-12T22:53:46.719Z,9.36
2023-05-12T22:56:14.104Z,9.32
2023-05-12T22:58:41.374Z,9.31
2023-05-12T23:01:08.410Z,9.25
2023-05-12T23:03:35.822Z,9.30
2023-05-12T23:06:02.914Z,9.30
2023-05-12T23:08:29.886Z,9.26
2023-05-12T23:10:57.205Z,9.29
2023-05-12T23:13:24.183Z,9.28
2023-05-12T23:15:52.023Z,9.30
2023-05-12T23:18:21.109Z,9.22
2023-05-12T23:20:48.083Z,9.26
2023-05-12T23:23:15.124Z,9.25
2023-05-12T23:25:42.965Z,9.23
2023-05-12T23:28:09.951Z,9.20
2023-05-12T23:30:36.996Z,9.24
2023-05-12T23:33:04.596Z,9.20
2023-05-12T23:35:31.742Z,9.21
2023-05-12T23:37:58.835Z,9.11
2023-05-12T23:40:26.329Z,9.10
2023-05-12T23:42:53.817Z,9.14
2023-05-12T23:45:20.808Z,9.18
2023-05-12T23:47:49.920Z,9.24
2023-05-12T23:50:17.004Z,9.29
2023-05-12T23:52:43.985Z,9.23
2023-05-12T23:55:11.730Z,9.24
2023-05-12T23:57:38.754Z,9.30
